createdAt,value
2022-08-19T00:02:04.389Z,19.80
2022-08-19T00:04:34.046Z,19.70
2022-08-19T00:07:01.153Z,19.70
2022-08-19T00:09:29.024Z,19.70
2022-08-19T00:11:57.421Z,19.70
2022-08-19T00:14:26.566Z,19.70
2022-08-19T00:16:55.599Z,19.70
2022-08-19T00:19:24.907Z,19.70
2022-08-19T00:21:52.477Z,19.60
2022-08-19T00:24:20.283Z,19.60
2022-08-19T00:26:47.421Z,19.50
2022-08-19T00:29:17.703Z,19.50
2022-08-19T00:31:45.932Z,19.50
2022-08-19T00:34:14.021Z,19.50
2022-08-19T00:36:44.094Z,19.50
2022-08-19T00:39:11.962Z,19.50
2022-08-19T00:41:39.536Z,19.50
2022-08-19T00:44:08.144Z,19.50
2022-08-19T00:46:37.787Z,19.40
2022-08-19T00:49:18.103Z,19.40
2022-08-19T00:51:48.150Z,19.40
2022-08-19T00:54:16.912Z,19.30
2022-08-19T00:56:45.095Z,19.30
2022-08-19T00:59:13.823Z,19.30
2022-08-19T01:02:01.180Z,19.30
2022-08-19T01:04:28.237Z,19.30
2022-08-19T01:06:56.607Z,19.30
2022-08-19T01:09:23.809Z,19.20
2022-08-19T01:11:52.395Z,19.20
2022-08-19T01:14:20.391Z,19.20
2022-08-19T01:16:48.095Z,19.20
2022-08-19T01:19:43.747Z,19.20
2022-08-19T01:22:37.484Z,19.20
2022-08-19T01:25:08.874Z,19.20
2022-08-19T01:27:44.353Z,19.20
2022-08-19T01:30:23.522Z,19.20
2022-08-19T01:32:52.261Z,19.20
2022-08-19T01:35:24.494Z,19.20
2022-08-19T01:37:58.888Z,19.20
2022-08-19T01:40:32.823Z,19.20
2022-08-19T01:43:00.699Z,19.20
2022-08-19T01:45:29.875Z,19.10
2022-08-19T01:48:01.813Z,19.10
2022-08-19T01:50:30.463Z,19.10
2022-08-19T01:53:06.118Z,19.10
2022-08-19T01:55:40.531Z,19.10
2022-08-19T01:58:13.296Z,19.00
2022-08-19T02:00:40.697Z,19.00
2022-08-19T02:03:07.872Z,19.00
2022-08-19T02:05:34.937Z,19.00
2022-08-19T02:08:02.025Z,19.00
2022-08-19T02:10:29.070Z,18.90
2022-08-19T02:12:56.151Z,18.90
2022-08-19T02:15:23.480Z,18.90
2022-08-19T02:17:50.691Z,18.90
2022-08-19T02:20:18.145Z,18.90
2022-08-19T02:22:45.924Z,18.90
2022-08-19T02:25:15.377Z,18.80
2022-08-19T02:27:43.522Z,18.80
2022-08-19T02:30:14.414Z,18.80
2022-08-19T02:32:44.289Z,18.70
2022-08-19T02:35:12.970Z,18.70
2022-08-19T02:37:58.836Z,18.70
2022-08-19T02:40:25.935Z,18.70
2022-08-19T02:42:53.217Z,18.60
2022-08-19T02:45:20.596Z,18.60
2022-08-19T02:47:47.959Z,18.60
2022-08-19T02:50:15.699Z,18.60
2022-08-19T02:52:42.748Z,18.60
2022-08-19T02:55:10.445Z,18.60
2022-08-19T02:57:37.515Z,18.60
2022-08-19T03:00:09.228Z,18.60
2022-08-19T03:02:36.301Z,18.60
2022-08-19T03:05:05.564Z,18.50
2022-08-19T03:07:32.697Z,18.60
2022-08-19T03:09:59.895Z,18.60
2022-08-19T03:12:27.051Z,18.50
2022-08-19T03:14:54.116Z,18.50
2022-08-19T03:17:21.579Z,18.50
2022-08-19T03:19:48.641Z,18.50
2022-08-19T03:22:15.705Z,18.50
2022-08-19T03:24:42.719Z,18.50
2022-08-19T03:27:09.752Z,18.40
2022-08-19T03:29:43.192Z,18.40
2022-08-19T03:32:32.129Z,18.40
2022-08-19T03:34:58.550Z,18.40
2022-08-19T03:37:25.539Z,18.40
2022-08-19T03:39:52.984Z,18.40
2022-08-19T03:42:38.254Z,18.40
2022-08-19T03:45:08.436Z,18.40
2022-08-19T03:47:35.640Z,18.30
2022-08-19T03:50:03.439Z,18.30
2022-08-19T03:52:30.460Z,18.20
2022-08-19T03:54:57.451Z,18.20
2022-08-19T03:57:31.671Z,18.20
2022-08-19T04:00:03.765Z,18.20
2022-08-19T04:02:40.660Z,18.20
2022-08-19T04:05:09.241Z,18.20
2022-08-19T04:07:36.703Z,18.20
2022-08-19T04:10:05.185Z,18.10
2022-08-19T04:12:32.567Z,18.20
2022-08-19T04:14:59.594Z,18.20
2022-08-19T04:17:26.925Z,18.20
2022-08-19T04:19:53.985Z,18.10
2022-08-19T04:22:21.004Z,18.10
2022-08-19T04:24:48.041Z,18.10
2022-08-19T04:27:15.938Z,18.10
2022-08-19T04:29:42.909Z,18.10
2022-08-19T04:32:11.953Z,18.10
2022-08-19T04:35:02.446Z,18.00
2022-08-19T04:37:35.018Z,18.10
2022-08-19T04:40:21.544Z,18.00
2022-08-19T04:42:48.868Z,18.10
2022-08-19T04:45:17.403Z,18.10
2022-08-19T04:47:47.510Z,18.10
2022-08-19T04:50:26.030Z,18.10
2022-08-19T04:52:53.612Z,18.10
2022-08-19T04:55:20.761Z,18.10
2022-08-19T04:57:47.871Z,18.10
2022-08-19T05:00:15.024Z,18.10
2022-08-19T05:02:42.380Z,18.10
2022-08-19T05:05:10.303Z,18.10
2022-08-19T05:07:37.660Z,18.10
2022-08-19T05:10:06.437Z,18.10
2022-08-19T05:12:33.681Z,18.10
2022-08-19T05:15:01.367Z,18.10
2022-08-19T05:17:32.117Z,18.20
2022-08-19T05:20:21.181Z,18.20
2022-08-19T05:22:48.914Z,18.20
2022-08-19T05:25:21.849Z,18.20
2022-08-19T05:27:49.402Z,18.10
2022-08-19T05:30:17.840Z,18.20
2022-08-19T05:32:44.910Z,18.10
2022-08-19T05:35:12.908Z,18.20
2022-08-19T05:37:43.390Z,18.20
2022-08-19T05:40:11.097Z,18.20
2022-08-19T05:42:38.620Z,18.20
2022-08-19T05:45:06.146Z,18.20
2022-08-19T05:47:33.493Z,18.30
2022-08-19T05:50:02.853Z,18.30
2022-08-19T05:52:32.514Z,18.30
2022-08-19T05:55:00.523Z,18.30
2022-08-19T05:57:30.093Z,18.40
2022-08-19T05:59:59.145Z,18.40
2022-08-19T06:02:32.022Z,18.50
2022-08-19T06:04:59.442Z,18.50
2022-08-19T06:07:26.638Z,18.60
2022-08-19T06:09:59.691Z,18.60
2022-08-19T06:12:35.283Z,18.70
2022-08-19T06:15:06.977Z,18.70
2022-08-19T06:17:35.898Z,18.70
2022-08-19T06:20:05.974Z,18.80
2022-08-19T06:22:38.147Z,18.80
2022-08-19T06:25:05.727Z,18.80
2022-08-19T06:27:34.005Z,18.80
2022-08-19T06:30:01.171Z,18.80
2022-08-19T06:32:28.232Z,18.90
2022-08-19T06:34:55.912Z,18.80
2022-08-19T06:37:23.585Z,18.80
2022-08-19T06:39:51.395Z,18.80
2022-08-19T06:42:22.395Z,18.90
2022-08-19T06:44:53.088Z,18.80
2022-08-19T06:47:23.522Z,18.80
2022-08-19T06:50:01.363Z,18.80
2022-08-19T06:52:38.393Z,18.80
2022-08-19T06:55:06.763Z,18.80
2022-08-19T06:57:34.717Z,18.80
2022-08-19T07:00:02.350Z,18.80
2022-08-19T07:02:29.481Z,18.80
2022-08-19T07:04:59.217Z,18.80
2022-08-19T07:07:26.268Z,18.80
2022-08-19T07:09:59.859Z,18.80
2022-08-19T07:12:38.067Z,18.80
2022-08-19T07:15:06.858Z,18.80
2022-08-19T07:17:34.583Z,18.70
2022-08-19T07:20:05.044Z,18.70
2022-08-19T07:22:34.922Z,18.80
2022-08-19T07:25:04.680Z,18.80
2022-08-19T07:27:35.756Z,18.80
2022-08-19T07:30:03.713Z,18.90
2022-08-19T07:32:32.537Z,18.90
2022-08-19T07:35:01.711Z,18.90
2022-08-19T07:37:33.008Z,18.90
2022-08-19T07:40:01.837Z,18.90
2022-08-19T07:42:30.980Z,18.90
2022-08-19T07:44:59.639Z,18.90
2022-08-19T07:47:49.270Z,18.90
2022-08-19T07:50:14.269Z,18.90
2022-08-19T07:52:41.771Z,18.90
2022-08-19T07:55:40.364Z,18.90
2022-08-19T07:57:58.721Z,18.90
2022-08-19T08:00:27.177Z,18.90
2022-08-19T08:02:55.399Z,18.90
2022-08-19T08:05:43.855Z,18.90
2022-08-19T08:08:45.145Z,18.90
2022-08-19T08:11:17.555Z,18.90
2022-08-19T08:13:47.123Z,18.90
2022-08-19T08:16:32.329Z,19.00
2022-08-19T08:19:00.337Z,18.90
2022-08-19T08:21:28.428Z,18.90
2022-08-19T08:23:56.742Z,18.90
2022-08-19T08:26:24.492Z,18.80
2022-08-19T08:28:52.185Z,18.80
2022-08-19T08:31:20.252Z,18.80
2022-08-19T08:33:49.190Z,18.80
2022-08-19T08:36:16.905Z,18.80
2022-08-19T08:38:48.285Z,18.70
2022-08-19T08:41:39.892Z,18.70
2022-08-19T08:44:07.162Z,18.80
2022-08-19T08:46:46.885Z,18.80
2022-08-19T08:49:16.832Z,18.90
2022-08-19T08:51:50.037Z,18.90
2022-08-19T08:54:34.881Z,19.00
2022-08-19T08:57:06.800Z,19.00
2022-08-19T08:59:40.105Z,19.00
2022-08-19T09:02:07.192Z,19.00
2022-08-19T09:04:36.917Z,19.00
2022-08-19T10:13:29.298Z,18.50
2022-08-19T10:16:02.841Z,18.40
2022-08-19T10:18:30.441Z,18.50
2022-08-19T10:21:09.642Z,18.40
2022-08-19T10:23:40.544Z,18.40
2022-08-19T10:26:08.530Z,18.40
2022-08-19T10:28:40.290Z,18.40
2022-08-19T10:31:12.781Z,18.40
2022-08-19T10:33:53.415Z,18.40
2022-08-19T10:36:24.079Z,18.40
2022-08-19T10:38:56.889Z,18.50
2022-08-19T10:41:30.259Z,18.50
2022-08-19T10:44:04.178Z,18.50
2022-08-19T10:46:33.727Z,18.60
2022-08-19T10:49:02.702Z,18.60
2022-08-19T10:51:49.121Z,18.60
2022-08-19T10:54:17.609Z,18.60
2022-08-19T10:56:58.474Z,18.60
2022-08-19T10:59:35.744Z,18.70
2022-08-19T11:02:06.333Z,18.70
2022-08-19T11:04:34.340Z,18.70
2022-08-19T11:07:04.420Z,18.70
2022-08-19T11:09:34.281Z,18.70
2022-08-19T11:12:02.893Z,18.70
2022-08-19T11:14:34.339Z,18.70
2022-08-19T11:17:02.846Z,18.70
2022-08-19T11:19:30.239Z,18.70
2022-08-19T11:21:57.832Z,18.70
2022-08-19T11:24:28.537Z,18.60
2022-08-19T11:27:03.145Z,18.60
2022-08-19T11:29:30.314Z,18.60
2022-08-19T11:31:57.368Z,18.50
2022-08-19T11:34:28.670Z,18.50
2022-08-19T11:37:00.641Z,18.50
2022-08-19T11:39:30.185Z,18.50
2022-08-19T11:41:59.755Z,18.50
2022-08-19T11:44:27.610Z,18.50
2022-08-19T11:46:54.694Z,18.50
2022-08-19T11:49:22.350Z,18.50
2022-08-19T11:51:51.795Z,18.50
2022-08-19T11:54:21.081Z,19.80
2022-08-19T11:56:50.139Z,18.50
2022-08-19T11:59:17.436Z,18.50
2022-08-19T12:01:44.667Z,18.50
2022-08-19T12:04:12.313Z,18.50
2022-08-19T12:06:42.273Z,18.50
2022-08-19T12:09:11.406Z,18.50
2022-08-19T12:11:39.608Z,18.50
2022-08-19T12:14:08.100Z,18.50
2022-08-19T12:16:51.562Z,18.50
2022-08-19T12:19:22.157Z,18.50
2022-08-19T12:21:50.532Z,18.50
2022-08-19T12:24:24.033Z,18.50
2022-08-19T12:26:52.948Z,18.60
2022-08-19T12:29:23.621Z,18.50
2022-08-19T12:31:52.780Z,18.50
2022-08-19T12:34:21.204Z,18.50
2022-08-19T12:36:50.396Z,18.50
2022-08-19T12:39:17.752Z,18.50
2022-08-19T12:41:51.268Z,18.40
2022-08-19T12:44:21.527Z,18.40
2022-08-19T12:46:57.703Z,18.40
2022-08-19T12:49:52.126Z,18.40
2022-08-19T12:52:16.691Z,18.40
2022-08-19T12:54:53.830Z,18.40
2022-08-19T12:57:23.162Z,18.40
2022-08-19T12:59:54.700Z,18.40
2022-08-19T13:02:22.443Z,18.40
2022-08-19T13:04:49.496Z,18.40
2022-08-19T13:07:16.574Z,18.40
2022-08-19T13:09:43.652Z,18.40
2022-08-19T13:12:14.073Z,18.40
2022-08-19T13:14:41.859Z,18.40
2022-08-19T13:17:09.640Z,18.30
2022-08-19T13:19:38.521Z,18.30
2022-08-19T13:22:13.152Z,18.30
2022-08-19T13:24:46.824Z,18.30
2022-08-19T13:27:16.385Z,18.40
2022-08-19T13:30:02.247Z,18.30
2022-08-19T13:32:49.374Z,18.40
2022-08-19T13:35:17.628Z,18.40
2022-08-19T13:37:46.435Z,18.40
2022-08-19T13:40:23.923Z,18.50
2022-08-19T13:42:53.569Z,18.50
2022-08-19T13:45:23.511Z,18.50
2022-08-19T13:47:55.843Z,18.50
2022-08-19T13:50:29.803Z,18.50
2022-08-19T13:52:57.691Z,18.60
2022-08-19T13:55:25.618Z,18.60
2022-08-19T13:57:54.307Z,18.60
2022-08-19T14:00:23.467Z,18.60
2022-08-19T14:02:53.554Z,18.60
2022-08-19T14:05:21.689Z,18.60
2022-08-19T14:07:49.287Z,18.60
2022-08-19T14:10:17.640Z,18.70
2022-08-19T14:12:44.702Z,18.70
2022-08-19T14:15:13.469Z,18.70
2022-08-19T14:17:42.660Z,18.70
2022-08-19T14:20:17.723Z,18.70
2022-08-19T14:22:46.999Z,18.70
2022-08-19T14:25:19.569Z,18.80
2022-08-19T14:27:46.826Z,18.80
2022-08-19T14:30:18.589Z,18.90
2022-08-19T14:32:45.660Z,19.00
2022-08-19T14:35:14.140Z,19.00
2022-08-19T14:37:56.532Z,19.10
2022-08-19T14:40:26.985Z,19.10
2022-08-19T14:43:00.115Z,19.20
2022-08-19T14:45:29.386Z,19.20
2022-08-19T14:47:56.753Z,19.20
2022-08-19T14:50:24.176Z,19.20
2022-08-19T14:52:52.869Z,19.30
2022-08-19T14:55:20.122Z,19.30
2022-08-19T14:57:47.543Z,19.30
2022-08-19T15:00:15.360Z,19.30
2022-08-19T15:02:45.179Z,19.30
2022-08-19T15:05:13.642Z,19.40
2022-08-19T15:07:42.054Z,19.30
2022-08-19T15:10:11.774Z,19.30
2022-08-19T15:12:43.387Z,19.30
2022-08-19T15:15:13.977Z,19.30
2022-08-19T15:17:46.624Z,19.20
2022-08-19T15:20:17.233Z,19.30
2022-08-19T15:22:44.402Z,19.30
2022-08-19T15:25:14.555Z,19.30
2022-08-19T15:27:41.834Z,19.20
2022-08-19T15:30:11.000Z,19.20
2022-08-19T15:32:38.732Z,19.20
2022-08-19T15:35:08.079Z,19.20
2022-08-19T15:37:37.331Z,19.10
2022-08-19T15:40:09.627Z,19.10
2022-08-19T15:42:38.301Z,19.10
2022-08-19T15:45:07.043Z,19.10
2022-08-19T15:47:34.629Z,19.10
2022-08-19T15:50:10.839Z,19.10
2022-08-19T15:53:05.189Z,19.10
2022-08-19T15:55:35.962Z,19.20
2022-08-19T15:58:28.674Z,19.20
2022-08-19T16:01:26.848Z,19.20
2022-08-19T16:04:15.865Z,19.10
2022-08-19T16:06:52.923Z,19.10
2022-08-19T16:09:27.045Z,19.10
2022-08-19T16:11:57.256Z,19.10
2022-08-19T16:14:29.512Z,19.10
2022-08-19T16:16:57.003Z,19.00
2022-08-19T16:19:25.147Z,19.00
2022-08-19T16:21:54.858Z,19.00
2022-08-19T16:24:23.256Z,19.00
2022-08-19T16:26:50.353Z,19.00
2022-08-19T16:29:33.343Z,18.90
2022-08-19T16:32:02.845Z,18.90
2022-08-19T16:34:31.087Z,18.90
2022-08-19T16:36:58.160Z,18.90
2022-08-19T16:39:25.277Z,18.90
2022-08-19T16:41:52.330Z,18.80
2022-08-19T16:44:21.006Z,18.80
2022-08-19T16:46:58.621Z,18.80
2022-08-19T16:49:54.572Z,18.80
2022-08-19T16:52:16.244Z,18.70
2022-08-19T16:54:43.987Z,18.70
2022-08-19T16:57:12.585Z,18.70
2022-08-19T16:59:48.193Z,18.70
2022-08-19T17:02:21.983Z,18.70
2022-08-19T17:04:58.496Z,18.70
2022-08-19T17:07:33.476Z,18.70
2022-08-19T17:10:02.203Z,18.70
2022-08-19T17:12:32.389Z,18.70
2022-08-19T17:15:01.378Z,18.80
2022-08-19T17:17:29.881Z,18.80
2022-08-19T17:19:59.260Z,18.70
2022-08-19T17:22:26.881Z,18.70
2022-08-19T17:24:56.198Z,18.70
2022-08-19T17:27:26.452Z,18.70
2022-08-19T17:29:53.562Z,18.70
2022-08-19T17:32:25.021Z,18.70
2022-08-19T17:34:54.189Z,18.70
2022-08-19T17:37:21.451Z,18.70
2022-08-19T17:39:48.573Z,18.70
2022-08-19T17:42:15.707Z,18.60
2022-08-19T17:44:43.179Z,18.60
2022-08-19T17:47:36.258Z,18.60
2022-08-19T17:50:08.620Z,18.60
2022-08-19T17:52:37.299Z,18.60
2022-08-19T17:55:05.544Z,18.60
2022-08-19T17:57:32.976Z,18.60
2022-08-19T18:00:00.174Z,18.50
2022-08-19T18:02:31.044Z,18.50
2022-08-19T18:04:58.884Z,18.50
2022-08-19T18:07:26.045Z,18.60
2022-08-19T18:09:54.903Z,18.50
2022-08-19T18:12:24.913Z,18.50
2022-08-19T18:14:52.101Z,18.50
2022-08-19T18:17:23.104Z,18.50
2022-08-19T18:19:50.269Z,18.50
2022-08-19T18:22:36.538Z,18.50
2022-08-19T18:25:12.240Z,18.50
2022-08-19T18:27:39.599Z,18.50
2022-08-19T18:30:07.940Z,18.40
2022-08-19T18:32:38.392Z,18.40
2022-08-19T18:39:19.032Z,18.30
2022-08-19T18:42:06.326Z,18.30
2022-08-19T18:44:59.244Z,18.30
2022-08-19T18:47:45.332Z,18.20
2022-08-19T18:50:13.810Z,18.20
2022-08-19T18:52:41.229Z,18.10
2022-08-19T18:55:08.590Z,18.10
2022-08-19T18:57:35.636Z,18.10
2022-08-19T19:00:04.721Z,18.10
2022-08-19T19:02:38.860Z,18.10
2022-08-19T19:05:07.810Z,18.10
2022-08-19T19:07:35.432Z,18.00
2022-08-19T19:10:02.705Z,18.00
2022-08-19T19:12:47.412Z,18.00
2022-08-19T19:15:14.618Z,18.00
2022-08-19T19:17:42.126Z,18.00
2022-08-19T19:20:10.031Z,18.00
2022-08-19T19:22:37.103Z,18.00
2022-08-19T19:25:05.912Z,18.00
2022-08-19T19:27:32.951Z,17.90
2022-08-19T19:30:00.081Z,17.90
2022-08-19T19:32:36.961Z,17.90
2022-08-19T19:35:09.512Z,17.90
2022-08-19T19:37:36.609Z,17.90
2022-08-19T19:40:04.657Z,17.90
2022-08-19T19:42:31.748Z,17.90
2022-08-19T19:44:58.775Z,17.90
2022-08-19T19:47:28.246Z,17.90
2022-08-19T19:52:45.809Z,17.90
2022-08-19T19:55:17.927Z,17.90
2022-08-19T19:57:49.030Z,17.90
2022-08-19T20:00:18.901Z,17.90
2022-08-19T20:02:49.810Z,17.90
2022-08-19T20:05:21.131Z,17.90
2022-08-19T20:08:08.656Z,17.90
2022-08-19T20:10:36.139Z,17.90
2022-08-19T20:13:04.470Z,17.90
2022-08-19T20:15:32.311Z,17.80
2022-08-19T20:18:00.978Z,17.80
2022-08-19T20:20:28.616Z,17.80
2022-08-19T20:22:56.244Z,17.80
2022-08-19T20:25:23.547Z,17.80
2022-08-19T20:27:50.858Z,17.80
2022-08-19T20:30:23.175Z,17.80
2022-08-19T20:32:50.922Z,17.80
2022-08-19T20:35:20.531Z,17.80
2022-08-19T20:37:48.616Z,17.80
2022-08-19T20:40:16.917Z,17.70
2022-08-19T20:42:50.758Z,17.70
2022-08-19T20:45:33.292Z,17.70
2022-08-19T20:48:03.255Z,17.70
2022-08-19T20:50:31.245Z,17.70
2022-08-19T20:52:58.650Z,17.70
2022-08-19T20:55:27.371Z,17.70
2022-08-19T20:57:54.979Z,17.60
2022-08-19T21:00:22.299Z,17.60
2022-08-19T21:02:49.935Z,17.60
2022-08-19T21:05:17.776Z,17.60
2022-08-19T21:07:45.716Z,17.60
2022-08-19T21:10:21.630Z,17.60
2022-08-19T21:12:50.530Z,17.60
2022-08-19T21:15:18.094Z,17.60
2022-08-19T21:17:46.875Z,17.60
2022-08-19T21:20:14.883Z,17.50
2022-08-19T21:22:42.492Z,17.60
2022-08-19T21:25:17.840Z,17.60
2022-08-19T21:27:45.483Z,17.60
2022-08-19T21:30:13.556Z,17.60
2022-08-19T21:32:41.140Z,17.60
2022-08-19T21:35:08.913Z,17.50
2022-08-19T21:37:38.242Z,17.50
2022-08-19T21:40:07.588Z,17.50
2022-08-19T21:42:34.717Z,17.50
2022-08-19T21:45:02.396Z,17.50
2022-08-19T21:47:29.389Z,17.50
2022-08-19T21:49:56.393Z,17.50
2022-08-19T21:52:27.581Z,17.50
2022-08-19T21:54:56.161Z,17.40
2022-08-19T21:57:24.652Z,17.50
2022-08-19T21:59:52.916Z,17.40
2022-08-19T22:02:21.502Z,17.40
2022-08-19T22:04:51.493Z,17.50
2022-08-19T22:07:20.240Z,17.50
2022-08-19T22:09:48.981Z,17.50
2022-08-19T22:12:30.385Z,17.50
2022-08-19T22:14:59.967Z,17.50
2022-08-19T22:17:30.073Z,17.40
2022-08-19T22:19:58.550Z,17.40
2022-08-19T22:22:32.280Z,17.40
2022-08-19T22:25:29.051Z,17.40
2022-08-19T22:28:01.547Z,17.40
2022-08-19T22:30:33.434Z,17.40
2022-08-19T22:33:04.125Z,17.40
2022-08-19T22:35:34.716Z,17.40
2022-08-19T22:38:03.616Z,17.50
2022-08-19T22:40:31.144Z,17.40
2022-08-19T22:43:04.321Z,17.40
2022-08-19T22:45:33.483Z,17.50
2022-08-19T22:48:00.606Z,17.40
2022-08-19T22:50:27.636Z,17.40
2022-08-19T22:52:59.942Z,17.40
2022-08-19T22:55:27.891Z,17.40
2022-08-19T22:57:55.291Z,17.40
2022-08-19T23:00:24.200Z,17.40
2022-08-19T23:02:52.477Z,17.40
2022-08-19T23:05:22.725Z,17.40
2022-08-19T23:07:52.715Z,17.40
2022-08-19T23:10:26.642Z,17.40
2022-08-19T23:12:56.904Z,17.40
2022-08-19T23:15:27.633Z,17.40
2022-08-19T23:17:58.328Z,17.40
2022-08-19T23:20:28.681Z,17.40
2022-08-19T23:22:56.522Z,17.30
2022-08-19T23:25:27.216Z,17.30
2022-08-19T23:28:13.234Z,17.30
2022-08-19T23:30:43.834Z,17.30
2022-08-19T23:33:24.898Z,17.30
2022-08-19T23:35:59.223Z,17.30
2022-08-19T23:38:27.967Z,17.30
2022-08-19T23:40:57.240Z,17.30
2022-08-19T23:43:25.334Z,17.30
2022-08-19T23:45:53.890Z,17.30
2022-08-19T23:48:26.135Z,17.30
2022-08-19T23:50:57.161Z,17.30
2022-08-19T23:53:25.024Z,17.30
2022-08-19T23:55:52.121Z,17.30
2022-08-19T23:58:19.710Z,17.20
